Terminal Aerodrome Forecast
Issued by NWS Jackson, MS

Home | Current Version | Previous Version | Text Only | Print | Product List | Glossary On
Versions: 1 2 3 4 5 6 7 8 9 10 11 12 13 14
000
FTUS44 KJAN 270545
TAFGWO
TAF
KGWO 270545Z 2706/2806 18005KT P6SM FEW060 SCT100
     FM271100 18009KT P6SM BKN025
     FM271300 18010KT P6SM BKN015
     FM271600 19014G20KT P6SM OVC025
     FM271800 20015G22KT P6SM VCSH BKN035
     FM272100 20011KT P6SM TSRA BKN050CB=

USA.gov is the U.S. government's official web portal to all federal, state and local government web resources and services.